White Pass
White Pass Ski Area
Latest observation 09/03 18:00 PDT
| Time (PDT) | Temp °F 5800' | Temp °F 4500' | RH % 5800' | RH % 4500' | Min mph 5970' | Spd mph 5970' | Gust mph 5970' | Dir ° 5970' | Pcp1 in 5800' | PcpSum in 5800' | 24Sno in 5800' | SnoHt in 5800' |
|---|---|---|---|---|---|---|---|---|---|---|---|---|
| 09/03 18:00 | 39 | 46 | 92 | 85 | 8 | 11 | 16 | 265 | 0.00 | 0.16 | 0.1 | 5.0 |
| 09/03 17:00 | 40 | 46 | 92 | 90 | 5 | 8 | 11 | 261 | 0.01 | 0.16 | 0.0 | 4.6 |
| 09/03 16:00 | 39 | 46 | 92 | 87 | 1 | 6 | 13 | 280 | 0.04 | 0.15 | 0.2 | 5.1 |
| 09/03 15:00 | 40 | 45 | 91 | 83 | 1 | 7 | 17 | 267 | 0.05 | 0.11 | 0.2 | 4.9 |
| 09/03 14:00 | 41 | 49 | 85 | 71 | 4 | 12 | 19 | 263 | 0.00 | 0.06 | 0.1 | 5.2 |
| 09/03 13:00 | 42 | 47 | 79 | 71 | 4 | 9 | 16 | 247 | 0.00 | 0.06 | 0.1 | 5.1 |
| 09/03 12:00 | 42 | 47 | 80 | 74 | 4 | 10 | 20 | 234 | 0.00 | 0.06 | 0.1 | 4.3 |
| 09/03 11:00 | 39 | 46 | 89 | 81 | 1 | 7 | 12 | 251 | 0.00 | 0.06 | 0.1 | 5.0 |
| 09/03 10:00 | 40 | 45 | 86 | 81 | 0 | 5 | 15 | 243 | 0.00 | 0.06 | 0.1 | 4.8 |
| 09/03 09:00 | 38 | 45 | 90 | 82 | 0 | 7 | 15 | 249 | 0.00 | 0.06 | 0.2 | 5.3 |
| 09/03 08:00 | 36 | 41 | 92 | 90 | 5 | 11 | 21 | 226 | 0.00 | 0.06 | 0.1 | 5.8 |
| 09/03 07:00 | 36 | 40 | 94 | 97 | 3 | 9 | 17 | 218 | 0.00 | 0.06 | 0.1 | 6.1 |
| 09/03 06:00 | 35 | 39 | 94 | 96 | 3 | 10 | 23 | 230 | 0.00 | 0.06 | 0.1 | 5.9 |
| 09/03 05:00 | 35 | 40 | 95 | 95 | 4 | 10 | 23 | 246 | 0.01 | 0.06 | 0.2 | 5.5 |
| 09/03 04:00 | 35 | 40 | 95 | 95 | 6 | 11 | 25 | 250 | 0.01 | 0.05 | 0.1 | 5.6 |
| 09/03 03:00 | 35 | 40 | 96 | 93 | 12 | 17 | 27 | 255 | 0.01 | 0.04 | 0.1 | 5.9 |
| 09/03 02:00 | 35 | 40 | 96 | 95 | 11 | 19 | 27 | 255 | 0.00 | 0.03 | 0.1 | 5.3 |
| 09/03 01:00 | 36 | 41 | 97 | 92 | 8 | 16 | 28 | 261 | 0.01 | 0.03 | 0.1 | 5.2 |
| 09/03 00:00 | 36 | 42 | 95 | 91 | 8 | 14 | 25 | 255 | 0.00 | 0.02 | 0.0 | 5.4 |
| 09/02 23:00 | 37 | 42 | 95 | 91 | 5 | 13 | 24 | 260 | 0.00 | 0.02 | 0.1 | 5.1 |
| 09/02 22:00 | 38 | 42 | 94 | 91 | 11 | 18 | 28 | 252 | 0.00 | 0.02 | 0.2 | 5.1 |
| 09/02 21:00 | 39 | 44 | 92 | 91 | 9 | 20 | 36 | 247 | 0.00 | 0.02 | 0.1 | 5.0 |
| 09/02 20:00 | 42 | 46 | 88 | 91 | 6 | 16 | 32 | 239 | 0.00 | 0.02 | 0.2 | 4.7 |
| 09/02 19:00 | 43 | 48 | 87 | 85 | 8 | 19 | 32 | 229 | 0.02 | 0.02 | 0.2 | 4.7 |

